Aitkin, Minnesota
Current Conditions -  °F | °C
As of 8:54 AM on Monday 24 Nov 2014 (Local Time) from KAIT Reporting Station
Overcast Overcast  
Wind Chill: 10°   Ceiling: 1200
Heat Index: 21°   Visibility: 10mi
Dew Point: 16°   Wind: 10mph
Humidity: 80%   Direction: 310°NW
Pressure: 29.4"   Gusts: 22mph
Location:  46.53°N, 93.71°W
Report Text: KAIT 241454Z AUTO 31009G19KT 10SM OVC012 M06/M09 A2940 RMK AO2
Loading
Personal Weather Stations






























Interactive Weather Map New forecast layout! Learn more

10-Day Weather Forecast

Advertisements
Track Severe Weather on mobile